sensor_id;sensor_type;location;lat;lon;timestamp;P1;durP1;ratioP1;P2;durP2;ratioP2
28848;SDS011;15981;43.292;-2.888;2022-07-05T00:00:33;6.20;;;2.20;;
28848;SDS011;15981;43.292;-2.888;2022-07-05T00:02:59;4.47;;;2.50;;
28848;SDS011;15981;43.292;-2.888;2022-07-05T00:05:25;6.20;;;2.80;;
28848;SDS011;15981;43.292;-2.888;2022-07-05T00:07:50;6.60;;;2.80;;
28848;SDS011;15981;43.292;-2.888;2022-07-05T00:10:16;5.47;;;3.28;;
28848;SDS011;15981;43.292;-2.888;2022-07-05T00:12:42;7.93;;;3.70;;
28848;SDS011;15981;43.292;-2.888;2022-07-05T00:15:07;6.78;;;4.22;;
28848;SDS011;15981;43.292;-2.888;2022-07-05T00:17:33;7.78;;;5.05;;
28848;SDS011;15981;43.292;-2.888;2022-07-05T00:19:59;8.35;;;4.50;;
28848;SDS011;15981;43.292;-2.888;2022-07-05T00:22:25;9.98;;;4.65;;
28848;SDS011;15981;43.292;-2.888;2022-07-05T00:24:50;9.82;;;4.78;;
28848;SDS011;15981;43.292;-2.888;2022-07-05T00:27:16;7.60;;;4.45;;
28848;SDS011;15981;43.292;-2.888;2022-07-05T00:29:42;9.85;;;5.03;;
28848;SDS011;15981;43.292;-2.888;2022-07-05T00:32:07;13.98;;;5.68;;
28848;SDS011;15981;43.292;-2.888;2022-07-05T00:34:33;11.10;;;5.22;;
28848;SDS011;15981;43.292;-2.888;2022-07-05T00:36:59;13.20;;;6.03;;
28848;SDS011;15981;43.292;-2.888;2022-07-05T00:39:25;10.88;;;5.25;;
28848;SDS011;15981;43.292;-2.888;2022-07-05T00:41:52;10.45;;;5.70;;
28848;SDS011;15981;43.292;-2.888;2022-07-05T00:44:27;7.55;;;4.28;;
28848;SDS011;15981;43.292;-2.888;2022-07-05T00:46:53;12.80;;;6.75;;
28848;SDS011;15981;43.292;-2.888;2022-07-05T00:49:18;11.75;;;5.43;;
28848;SDS011;15981;43.292;-2.888;2022-07-05T00:51:44;10.90;;;5.18;;
28848;SDS011;15981;43.292;-2.888;2022-07-05T00:54:10;7.30;;;4.78;;
28848;SDS011;15981;43.292;-2.888;2022-07-05T00:56:35;9.27;;;4.93;;
28848;SDS011;15981;43.292;-2.888;2022-07-05T00:59:01;9.70;;;5.05;;
28848;SDS011;15981;43.292;-2.888;2022-07-05T01:01:27;8.95;;;4.70;;
28848;SDS011;15981;43.292;-2.888;2022-07-05T01:03:53;8.48;;;4.63;;
28848;SDS011;15981;43.292;-2.888;2022-07-05T01:06:19;8.80;;;4.90;;
28848;SDS011;15981;43.292;-2.888;2022-07-05T01:08:44;9.02;;;5.03;;
28848;SDS011;15981;43.292;-2.888;2022-07-05T01:11:11;13.85;;;7.32;;
28848;SDS011;15981;43.292;-2.888;2022-07-05T01:13:37;9.05;;;4.72;;
28848;SDS011;15981;43.292;-2.888;2022-07-05T01:16:03;16.92;;;7.75;;
28848;SDS011;15981;43.292;-2.888;2022-07-05T01:18:30;6.38;;;4.55;;
28848;SDS011;15981;43.292;-2.888;2022-07-05T01:20:57;9.80;;;4.82;;
28848;SDS011;15981;43.292;-2.888;2022-07-05T01:23:23;14.27;;;7.00;;
28848;SDS011;15981;43.292;-2.888;2022-07-05T01:25:51;12.55;;;6.00;;
28848;SDS011;15981;43.292;-2.888;2022-07-05T01:28:19;11.50;;;5.60;;
28848;SDS011;15981;43.292;-2.888;2022-07-05T01:30:44;9.27;;;5.25;;
28848;SDS011;15981;43.292;-2.888;2022-07-05T01:33:10;11.45;;;5.70;;
28848;SDS011;15981;43.292;-2.888;2022-07-05T01:35:36;10.43;;;5.75;;
28848;SDS011;15981;43.292;-2.888;2022-07-05T01:38:02;15.48;;;7.63;;
28848;SDS011;15981;43.292;-2.888;2022-07-05T01:40:28;10.90;;;6.00;;
28848;SDS011;15981;43.292;-2.888;2022-07-05T01:42:54;12.43;;;6.25;;
28848;SDS011;15981;43.292;-2.888;2022-07-05T01:45:20;10.13;;;5.85;;
28848;SDS011;15981;43.292;-2.888;2022-07-05T01:48:08;10.15;;;5.40;;
28848;SDS011;15981;43.292;-2.888;2022-07-05T01:50:38;12.07;;;5.22;;
28848;SDS011;15981;43.292;-2.888;2022-07-05T01:53:05;14.85;;;6.03;;
28848;SDS011;15981;43.292;-2.888;2022-07-05T01:55:34;10.80;;;5.65;;
28848;SDS011;15981;43.292;-2.888;2022-07-05T01:57:59;10.52;;;4.93;;
28848;SDS011;15981;43.292;-2.888;2022-07-05T02:00:26;9.13;;;4.38;;
28848;SDS011;15981;43.292;-2.888;2022-07-05T02:02:52;8.38;;;4.68;;
28848;SDS011;15981;43.292;-2.888;2022-07-05T02:05:18;8.73;;;4.60;;
28848;SDS011;15981;43.292;-2.888;2022-07-05T02:07:47;9.07;;;4.78;;
28848;SDS011;15981;43.292;-2.888;2022-07-05T02:10:13;9.77;;;4.75;;
28848;SDS011;15981;43.292;-2.888;2022-07-05T02:12:38;8.40;;;4.30;;
28848;SDS011;15981;43.292;-2.888;2022-07-05T02:15:04;9.77;;;4.65;;
28848;SDS011;15981;43.292;-2.888;2022-07-05T02:17:30;10.65;;;4.60;;
28848;SDS011;15981;43.292;-2.888;2022-07-05T02:19:56;9.73;;;4.32;;
28848;SDS011;15981;43.292;-2.888;2022-07-05T02:22:23;7.60;;;4.57;;
28848;SDS011;15981;43.292;-2.888;2022-07-05T02:24:49;10.82;;;4.85;;
28848;SDS011;15981;43.292;-2.888;2022-07-05T02:27:14;9.55;;;4.35;;
28848;SDS011;15981;43.292;-2.888;2022-07-05T02:29:40;7.55;;;3.90;;
28848;SDS011;15981;43.292;-2.888;2022-07-05T02:32:06;12.30;;;4.70;;
28848;SDS011;15981;43.292;-2.888;2022-07-05T02:34:32;10.45;;;4.75;;
28848;SDS011;15981;43.292;-2.888;2022-07-05T02:36:57;11.00;;;5.43;;
28848;SDS011;15981;43.292;-2.888;2022-07-05T02:39:23;11.90;;;5.72;;
28848;SDS011;15981;43.292;-2.888;2022-07-05T02:41:49;14.55;;;6.53;;
28848;SDS011;15981;43.292;-2.888;2022-07-05T02:44:14;9.63;;;5.15;;
28848;SDS011;15981;43.292;-2.888;2022-07-05T02:46:40;9.90;;;4.85;;
28848;SDS011;15981;43.292;-2.888;2022-07-05T02:49:06;11.07;;;4.82;;
28848;SDS011;15981;43.292;-2.888;2022-07-05T02:51:32;9.57;;;4.80;;
28848;SDS011;15981;43.292;-2.888;2022-07-05T02:53:57;9.02;;;4.70;;
28848;SDS011;15981;43.292;-2.888;2022-07-05T02:56:23;8.30;;;5.15;;
28848;SDS011;15981;43.292;-2.888;2022-07-05T02:58:49;7.80;;;4.50;;
28848;SDS011;15981;43.292;-2.888;2022-07-05T03:01:14;10.15;;;5.03;;
28848;SDS011;15981;43.292;-2.888;2022-07-05T03:03:40;7.85;;;4.47;;
28848;SDS011;15981;43.292;-2.888;2022-07-05T03:06:06;10.05;;;5.00;;
28848;SDS011;15981;43.292;-2.888;2022-07-05T03:08:32;8.02;;;4.22;;
28848;SDS011;15981;43.292;-2.888;2022-07-05T03:10:57;8.82;;;4.55;;
28848;SDS011;15981;43.292;-2.888;2022-07-05T03:13:23;8.43;;;4.50;;
28848;SDS011;15981;43.292;-2.888;2022-07-05T03:15:49;10.32;;;4.32;;
28848;SDS011;15981;43.292;-2.888;2022-07-05T03:18:14;6.45;;;4.05;;
28848;SDS011;15981;43.292;-2.888;2022-07-05T03:20:40;7.72;;;4.28;;
28848;SDS011;15981;43.292;-2.888;2022-07-05T03:23:06;7.72;;;4.22;;
28848;SDS011;15981;43.292;-2.888;2022-07-05T03:25:32;8.02;;;4.22;;
28848;SDS011;15981;43.292;-2.888;2022-07-05T03:27:58;7.43;;;4.65;;
28848;SDS011;15981;43.292;-2.888;2022-07-05T03:30:24;8.98;;;3.95;;
28848;SDS011;15981;43.292;-2.888;2022-07-05T03:32:49;8.95;;;4.93;;
28848;SDS011;15981;43.292;-2.888;2022-07-05T03:35:15;8.32;;;4.32;;
28848;SDS011;15981;43.292;-2.888;2022-07-05T03:37:41;9.32;;;4.43;;
28848;SDS011;15981;43.292;-2.888;2022-07-05T03:40:07;7.55;;;3.72;;
28848;SDS011;15981;43.292;-2.888;2022-07-05T03:42:33;8.65;;;3.97;;
28848;SDS011;15981;43.292;-2.888;2022-07-05T03:45:00;7.47;;;4.07;;
28848;SDS011;15981;43.292;-2.888;2022-07-05T03:47:26;6.65;;;3.88;;
28848;SDS011;15981;43.292;-2.888;2022-07-05T03:49:53;5.78;;;3.47;;
28848;SDS011;15981;43.292;-2.888;2022-07-05T03:52:19;6.88;;;3.85;;
28848;SDS011;15981;43.292;-2.888;2022-07-05T03:54:44;8.80;;;4.10;;
28848;SDS011;15981;43.292;-2.888;2022-07-05T03:57:11;8.10;;;3.95;;
28848;SDS011;15981;43.292;-2.888;2022-07-05T03:59:37;7.28;;;4.03;;
28848;SDS011;15981;43.292;-2.888;2022-07-05T04:02:03;7.57;;;4.05;;
28848;SDS011;15981;43.292;-2.888;2022-07-05T04:04:28;8.65;;;4.30;;
28848;SDS011;15981;43.292;-2.888;2022-07-05T04:06:54;7.75;;;4.32;;
28848;SDS011;15981;43.292;-2.888;2022-07-05T04:09:20;7.60;;;4.38;;
28848;SDS011;15981;43.292;-2.888;2022-07-05T04:11:46;8.35;;;4.03;;
28848;SDS011;15981;43.292;-2.888;2022-07-05T04:14:11;5.93;;;4.00;;
28848;SDS011;15981;43.292;-2.888;2022-07-05T04:16:37;5.95;;;3.92;;
28848;SDS011;15981;43.292;-2.888;2022-07-05T04:19:03;8.95;;;4.28;;
28848;SDS011;15981;43.292;-2.888;2022-07-05T04:21:28;11.30;;;4.18;;
28848;SDS011;15981;43.292;-2.888;2022-07-05T04:23:54;5.82;;;3.83;;
28848;SDS011;15981;43.292;-2.888;2022-07-05T04:26:20;9.65;;;4.18;;
28848;SDS011;15981;43.292;-2.888;2022-07-05T04:28:45;9.98;;;4.40;;
28848;SDS011;15981;43.292;-2.888;2022-07-05T04:31:11;8.73;;;4.32;;
28848;SDS011;15981;43.292;-2.888;2022-07-05T04:33:37;8.80;;;4.30;;
28848;SDS011;15981;43.292;-2.888;2022-07-05T04:36:03;8.00;;;4.32;;
28848;SDS011;15981;43.292;-2.888;2022-07-05T04:38:28;9.13;;;4.35;;
28848;SDS011;15981;43.292;-2.888;2022-07-05T04:40:54;8.90;;;4.40;;
28848;SDS011;15981;43.292;-2.888;2022-07-05T04:43:20;7.43;;;3.50;;
28848;SDS011;15981;43.292;-2.888;2022-07-05T04:45:46;6.68;;;3.65;;
28848;SDS011;15981;43.292;-2.888;2022-07-05T04:48:11;6.93;;;3.50;;
28848;SDS011;15981;43.292;-2.888;2022-07-05T04:50:37;6.35;;;3.70;;
28848;SDS011;15981;43.292;-2.888;2022-07-05T04:53:03;7.47;;;3.90;;
28848;SDS011;15981;43.292;-2.888;2022-07-05T04:55:29;8.93;;;4.22;;
28848;SDS011;15981;43.292;-2.888;2022-07-05T04:57:54;6.97;;;4.25;;
28848;SDS011;15981;43.292;-2.888;2022-07-05T05:00:20;8.35;;;4.05;;
28848;SDS011;15981;43.292;-2.888;2022-07-05T05:02:46;6.47;;;4.22;;
28848;SDS011;15981;43.292;-2.888;2022-07-05T05:05:11;9.80;;;4.75;;
28848;SDS011;15981;43.292;-2.888;2022-07-05T05:07:41;9.57;;;4.70;;
28848;SDS011;15981;43.292;-2.888;2022-07-05T05:10:07;10.30;;;4.93;;
28848;SDS011;15981;43.292;-2.888;2022-07-05T05:12:32;5.15;;;3.55;;
28848;SDS011;15981;43.292;-2.888;2022-07-05T05:14:58;6.65;;;4.00;;
28848;SDS011;15981;43.292;-2.888;2022-07-05T05:17:24;9.00;;;4.00;;
28848;SDS011;15981;43.292;-2.888;2022-07-05T05:19:50;9.77;;;4.50;;
28848;SDS011;15981;43.292;-2.888;2022-07-05T05:22:15;8.70;;;5.13;;
28848;SDS011;15981;43.292;-2.888;2022-07-05T05:24:41;7.38;;;4.20;;
28848;SDS011;15981;43.292;-2.888;2022-07-05T05:27:07;10.57;;;4.35;;
28848;SDS011;15981;43.292;-2.888;2022-07-05T05:29:33;7.07;;;3.83;;
28848;SDS011;15981;43.292;-2.888;2022-07-05T05:31:58;8.82;;;4.60;;
28848;SDS011;15981;43.292;-2.888;2022-07-05T05:34:25;7.32;;;4.18;;
28848;SDS011;15981;43.292;-2.888;2022-07-05T05:36:50;11.88;;;4.43;;
28848;SDS011;15981;43.292;-2.888;2022-07-05T05:39:16;10.20;;;4.32;;
28848;SDS011;15981;43.292;-2.888;2022-07-05T05:41:42;8.45;;;4.55;;
28848;SDS011;15981;43.292;-2.888;2022-07-05T05:44:08;8.23;;;4.78;;
28848;SDS011;15981;43.292;-2.888;2022-07-05T05:46:35;9.23;;;4.55;;
28848;SDS011;15981;43.292;-2.888;2022-07-05T05:49:00;6.18;;;3.55;;
28848;SDS011;15981;43.292;-2.888;2022-07-05T05:51:26;7.75;;;4.28;;
28848;SDS011;15981;43.292;-2.888;2022-07-05T05:53:52;6.57;;;3.67;;
28848;SDS011;15981;43.292;-2.888;2022-07-05T05:56:18;7.80;;;4.40;;
28848;SDS011;15981;43.292;-2.888;2022-07-05T05:58:43;7.30;;;4.03;;
28848;SDS011;15981;43.292;-2.888;2022-07-05T06:01:09;8.80;;;4.13;;
28848;SDS011;15981;43.292;-2.888;2022-07-05T06:03:35;8.38;;;4.25;;
28848;SDS011;15981;43.292;-2.888;2022-07-05T06:06:01;10.82;;;5.35;;
28848;SDS011;15981;43.292;-2.888;2022-07-05T06:08:26;14.02;;;5.60;;
28848;SDS011;15981;43.292;-2.888;2022-07-05T06:10:52;9.75;;;4.47;;
28848;SDS011;15981;43.292;-2.888;2022-07-05T06:13:18;9.00;;;4.43;;
28848;SDS011;15981;43.292;-2.888;2022-07-05T06:15:44;6.72;;;4.10;;
28848;SDS011;15981;43.292;-2.888;2022-07-05T06:18:10;11.73;;;5.35;;
28848;SDS011;15981;43.292;-2.888;2022-07-05T06:20:37;9.07;;;4.97;;
28848;SDS011;15981;43.292;-2.888;2022-07-05T06:23:03;9.02;;;5.18;;
28848;SDS011;15981;43.292;-2.888;2022-07-05T06:25:29;10.23;;;5.53;;
28848;SDS011;15981;43.292;-2.888;2022-07-05T06:27:59;8.63;;;5.40;;
28848;SDS011;15981;43.292;-2.888;2022-07-05T06:30:25;10.00;;;4.60;;
28848;SDS011;15981;43.292;-2.888;2022-07-05T06:32:52;7.95;;;4.90;;
28848;SDS011;15981;43.292;-2.888;2022-07-05T06:35:18;12.27;;;5.32;;
28848;SDS011;15981;43.292;-2.888;2022-07-05T06:37:47;10.13;;;5.15;;
28848;SDS011;15981;43.292;-2.888;2022-07-05T06:40:16;9.88;;;5.03;;
28848;SDS011;15981;43.292;-2.888;2022-07-05T06:42:42;10.25;;;5.80;;
28848;SDS011;15981;43.292;-2.888;2022-07-05T06:45:07;6.85;;;3.92;;
28848;SDS011;15981;43.292;-2.888;2022-07-05T06:47:34;7.72;;;4.20;;
28848;SDS011;15981;43.292;-2.888;2022-07-05T06:50:00;9.35;;;5.85;;
28848;SDS011;15981;43.292;-2.888;2022-07-05T06:52:28;14.35;;;6.55;;
28848;SDS011;15981;43.292;-2.888;2022-07-05T06:54:54;10.30;;;5.63;;
28848;SDS011;15981;43.292;-2.888;2022-07-05T06:57:20;9.38;;;4.20;;
28848;SDS011;15981;43.292;-2.888;2022-07-05T06:59:46;9.32;;;4.50;;
28848;SDS011;15981;43.292;-2.888;2022-07-05T07:02:12;8.38;;;4.63;;
28848;SDS011;15981;43.292;-2.888;2022-07-05T07:04:38;8.68;;;4.72;;
28848;SDS011;15981;43.292;-2.888;2022-07-05T07:07:03;9.65;;;5.57;;
28848;SDS011;15981;43.292;-2.888;2022-07-05T07:09:29;10.10;;;5.63;;
28848;SDS011;15981;43.292;-2.888;2022-07-05T07:11:55;10.50;;;5.85;;
28848;SDS011;15981;43.292;-2.888;2022-07-05T07:14:21;10.02;;;5.40;;
28848;SDS011;15981;43.292;-2.888;2022-07-05T07:16:47;8.77;;;5.18;;
28848;SDS011;15981;43.292;-2.888;2022-07-05T07:19:12;9.23;;;4.75;;
28848;SDS011;15981;43.292;-2.888;2022-07-05T07:21:39;6.47;;;4.47;;
28848;SDS011;15981;43.292;-2.888;2022-07-05T07:24:05;11.73;;;4.30;;
28848;SDS011;15981;43.292;-2.888;2022-07-05T07:26:31;8.27;;;4.28;;
28848;SDS011;15981;43.292;-2.888;2022-07-05T07:29:17;10.32;;;4.63;;
28848;SDS011;15981;43.292;-2.888;2022-07-05T07:31:43;7.95;;;4.72;;
28848;SDS011;15981;43.292;-2.888;2022-07-05T07:34:08;8.27;;;3.85;;
28848;SDS011;15981;43.292;-2.888;2022-07-05T07:36:34;7.63;;;3.97;;
28848;SDS011;15981;43.292;-2.888;2022-07-05T07:39:00;6.18;;;3.88;;
28848;SDS011;15981;43.292;-2.888;2022-07-05T07:41:25;5.65;;;3.40;;
28848;SDS011;15981;43.292;-2.888;2022-07-05T07:43:51;6.53;;;3.03;;
28848;SDS011;15981;43.292;-2.888;2022-07-05T07:46:17;5.65;;;2.90;;
28848;SDS011;15981;43.292;-2.888;2022-07-05T07:48:43;4.95;;;2.40;;
28848;SDS011;15981;43.292;-2.888;2022-07-05T07:51:08;6.93;;;2.63;;
28848;SDS011;15981;43.292;-2.888;2022-07-05T07:53:34;6.50;;;2.75;;
28848;SDS011;15981;43.292;-2.888;2022-07-05T07:56:00;5.32;;;2.40;;
28848;SDS011;15981;43.292;-2.888;2022-07-05T07:58:25;5.00;;;2.10;;
28848;SDS011;15981;43.292;-2.888;2022-07-05T08:00:51;5.88;;;2.50;;
28848;SDS011;15981;43.292;-2.888;2022-07-05T08:03:17;6.15;;;2.40;;
28848;SDS011;15981;43.292;-2.888;2022-07-05T08:05:42;4.57;;;2.28;;
28848;SDS011;15981;43.292;-2.888;2022-07-05T08:08:08;4.78;;;2.25;;
28848;SDS011;15981;43.292;-2.888;2022-07-05T08:10:34;3.30;;;2.40;;
28848;SDS011;15981;43.292;-2.888;2022-07-05T08:12:59;3.33;;;1.95;;
28848;SDS011;15981;43.292;-2.888;2022-07-05T08:15:25;5.75;;;1.98;;
28848;SDS011;15981;43.292;-2.888;2022-07-05T08:17:51;3.05;;;2.00;;
28848;SDS011;15981;43.292;-2.888;2022-07-05T08:20:35;4.22;;;1.98;;
28848;SDS011;15981;43.292;-2.888;2022-07-05T08:23:19;4.63;;;2.35;;
28848;SDS011;15981;43.292;-2.888;2022-07-05T08:25:45;9.13;;;2.50;;
28848;SDS011;15981;43.292;-2.888;2022-07-05T08:28:11;5.40;;;2.03;;
28848;SDS011;15981;43.292;-2.888;2022-07-05T08:30:36;5.25;;;2.13;;
28848;SDS011;15981;43.292;-2.888;2022-07-05T08:33:02;6.05;;;2.20;;
28848;SDS011;15981;43.292;-2.888;2022-07-05T08:35:28;3.90;;;1.88;;
28848;SDS011;15981;43.292;-2.888;2022-07-05T08:37:53;3.03;;;2.08;;
28848;SDS011;15981;43.292;-2.888;2022-07-05T08:40:19;7.28;;;2.10;;
28848;SDS011;15981;43.292;-2.888;2022-07-05T08:42:47;6.05;;;2.10;;
28848;SDS011;15981;43.292;-2.888;2022-07-05T08:45:13;2.90;;;1.77;;
28848;SDS011;15981;43.292;-2.888;2022-07-05T08:47:39;6.55;;;2.22;;
28848;SDS011;15981;43.292;-2.888;2022-07-05T08:50:06;3.58;;;2.45;;
28848;SDS011;15981;43.292;-2.888;2022-07-05T08:52:33;6.50;;;2.42;;
28848;SDS011;15981;43.292;-2.888;2022-07-05T08:54:58;7.18;;;2.10;;
28848;SDS011;15981;43.292;-2.888;2022-07-05T08:57:24;3.58;;;1.70;;
28848;SDS011;15981;43.292;-2.888;2022-07-05T08:59:50;5.13;;;2.10;;
28848;SDS011;15981;43.292;-2.888;2022-07-05T09:02:16;5.85;;;2.05;;
28848;SDS011;15981;43.292;-2.888;2022-07-05T09:04:43;3.97;;;2.22;;
28848;SDS011;15981;43.292;-2.888;2022-07-05T09:07:10;5.80;;;1.85;;
28848;SDS011;15981;43.292;-2.888;2022-07-05T09:09:39;3.22;;;2.13;;
28848;SDS011;15981;43.292;-2.888;2022-07-05T09:12:11;5.25;;;2.10;;
28848;SDS011;15981;43.292;-2.888;2022-07-05T09:14:38;2.88;;;1.40;;
28848;SDS011;15981;43.292;-2.888;2022-07-05T09:17:03;6.68;;;2.10;;
28848;SDS011;15981;43.292;-2.888;2022-07-05T09:19:29;5.97;;;2.08;;
28848;SDS011;15981;43.292;-2.888;2022-07-05T09:22:00;3.83;;;1.83;;
28848;SDS011;15981;43.292;-2.888;2022-07-05T09:24:27;4.55;;;1.60;;
28848;SDS011;15981;43.292;-2.888;2022-07-05T09:26:53;3.33;;;1.60;;
28848;SDS011;15981;43.292;-2.888;2022-07-05T09:29:27;3.28;;;1.80;;
28848;SDS011;15981;43.292;-2.888;2022-07-05T09:31:52;7.00;;;1.90;;
28848;SDS011;15981;43.292;-2.888;2022-07-05T09:34:18;6.00;;;1.88;;
28848;SDS011;15981;43.292;-2.888;2022-07-05T09:36:48;4.30;;;2.25;;
28848;SDS011;15981;43.292;-2.888;2022-07-05T09:39:14;4.85;;;1.77;;
28848;SDS011;15981;43.292;-2.888;2022-07-05T09:41:40;2.58;;;1.30;;
28848;SDS011;15981;43.292;-2.888;2022-07-05T09:44:05;4.20;;;1.40;;
28848;SDS011;15981;43.292;-2.888;2022-07-05T09:46:31;2.42;;;1.38;;
28848;SDS011;15981;43.292;-2.888;2022-07-05T09:48:57;3.22;;;1.60;;
28848;SDS011;15981;43.292;-2.888;2022-07-05T09:51:23;3.28;;;1.50;;
28848;SDS011;15981;43.292;-2.888;2022-07-05T09:53:50;2.65;;;1.55;;
28848;SDS011;15981;43.292;-2.888;2022-07-05T09:56:16;3.17;;;1.60;;
28848;SDS011;15981;43.292;-2.888;2022-07-05T09:58:43;4.68;;;1.70;;
28848;SDS011;15981;43.292;-2.888;2022-07-05T10:06:25;3.88;;;1.67;;
28848;SDS011;15981;43.292;-2.888;2022-07-05T10:08:54;5.20;;;1.50;;
28848;SDS011;15981;43.292;-2.888;2022-07-05T10:11:21;3.53;;;1.80;;
28848;SDS011;15981;43.292;-2.888;2022-07-05T10:13:50;4.32;;;1.70;;
28848;SDS011;15981;43.292;-2.888;2022-07-05T10:16:16;3.40;;;1.60;;
28848;SDS011;15981;43.292;-2.888;2022-07-05T10:18:46;3.25;;;1.63;;
28848;SDS011;15981;43.292;-2.888;2022-07-05T10:21:15;4.18;;;1.60;;
28848;SDS011;15981;43.292;-2.888;2022-07-05T10:23:45;4.15;;;1.50;;
28848;SDS011;15981;43.292;-2.888;2022-07-05T10:26:11;4.18;;;1.80;;
28848;SDS011;15981;43.292;-2.888;2022-07-05T10:28:39;2.85;;;1.48;;
28848;SDS011;15981;43.292;-2.888;2022-07-05T10:31:05;4.60;;;1.63;;
28848;SDS011;15981;43.292;-2.888;2022-07-05T10:33:31;2.20;;;1.33;;
28848;SDS011;15981;43.292;-2.888;2022-07-05T10:35:57;2.50;;;1.38;;
28848;SDS011;15981;43.292;-2.888;2022-07-05T10:38:24;2.20;;;1.60;;
28848;SDS011;15981;43.292;-2.888;2022-07-05T10:40:51;3.88;;;1.52;;
28848;SDS011;15981;43.292;-2.888;2022-07-05T10:43:18;4.55;;;1.50;;
28848;SDS011;15981;43.292;-2.888;2022-07-05T10:45:47;3.40;;;1.50;;
28848;SDS011;15981;43.292;-2.888;2022-07-05T10:53:07;2.78;;;1.40;;
28848;SDS011;15981;43.292;-2.888;2022-07-05T10:55:46;4.57;;;1.70;;
28848;SDS011;15981;43.292;-2.888;2022-07-05T10:58:22;2.70;;;1.48;;
28848;SDS011;15981;43.292;-2.888;2022-07-05T11:00:48;3.33;;;1.52;;
28848;SDS011;15981;43.292;-2.888;2022-07-05T11:03:34;4.75;;;1.45;;
28848;SDS011;15981;43.292;-2.888;2022-07-05T11:06:02;4.22;;;1.38;;
28848;SDS011;15981;43.292;-2.888;2022-07-05T11:08:28;2.42;;;1.30;;
28848;SDS011;15981;43.292;-2.888;2022-07-05T11:11:12;3.20;;;1.17;;
28848;SDS011;15981;43.292;-2.888;2022-07-05T11:13:39;2.63;;;1.05;;
28848;SDS011;15981;43.292;-2.888;2022-07-05T11:16:19;2.83;;;1.33;;
28848;SDS011;15981;43.292;-2.888;2022-07-05T11:18:45;3.60;;;1.17;;
28848;SDS011;15981;43.292;-2.888;2022-07-05T11:21:20;1.92;;;1.20;;
28848;SDS011;15981;43.292;-2.888;2022-07-05T11:23:47;2.80;;;1.25;;
28848;SDS011;15981;43.292;-2.888;2022-07-05T11:26:17;1.98;;;1.10;;
28848;SDS011;15981;43.292;-2.888;2022-07-05T11:28:44;1.05;;;0.93;;
28848;SDS011;15981;43.292;-2.888;2022-07-05T11:31:10;2.55;;;1.15;;
28848;SDS011;15981;43.292;-2.888;2022-07-05T11:36:03;1.20;;;1.10;;
28848;SDS011;15981;43.292;-2.888;2022-07-05T11:38:30;1.75;;;1.20;;
28848;SDS011;15981;43.292;-2.888;2022-07-05T11:41:10;1.42;;;1.10;;
28848;SDS011;15981;43.292;-2.888;2022-07-05T11:43:35;3.42;;;1.27;;
28848;SDS011;15981;43.292;-2.888;2022-07-05T11:46:01;2.28;;;1.15;;
28848;SDS011;15981;43.292;-2.888;2022-07-05T11:48:28;2.28;;;1.05;;
28848;SDS011;15981;43.292;-2.888;2022-07-05T11:50:54;3.40;;;1.20;;
28848;SDS011;15981;43.292;-2.888;2022-07-05T11:53:27;2.70;;;1.13;;
28848;SDS011;15981;43.292;-2.888;2022-07-05T11:55:59;2.00;;;1.00;;
28848;SDS011;15981;43.292;-2.888;2022-07-05T11:58:31;1.92;;;1.15;;
28848;SDS011;15981;43.292;-2.888;2022-07-05T12:00:57;4.68;;;1.33;;
28848;SDS011;15981;43.292;-2.888;2022-07-05T12:03:23;2.85;;;1.30;;
28848;SDS011;15981;43.292;-2.888;2022-07-05T12:05:48;2.30;;;1.40;;
28848;SDS011;15981;43.292;-2.888;2022-07-05T12:08:23;2.92;;;1.08;;
28848;SDS011;15981;43.292;-2.888;2022-07-05T12:10:50;2.67;;;1.30;;
28848;SDS011;15981;43.292;-2.888;2022-07-05T12:13:47;1.50;;;0.95;;
28848;SDS011;15981;43.292;-2.888;2022-07-05T12:16:13;1.60;;;0.93;;
28848;SDS011;15981;43.292;-2.888;2022-07-05T12:18:52;3.90;;;1.33;;
28848;SDS011;15981;43.292;-2.888;2022-07-05T12:21:18;2.80;;;1.48;;
28848;SDS011;15981;43.292;-2.888;2022-07-05T12:23:47;4.95;;;1.20;;
28848;SDS011;15981;43.292;-2.888;2022-07-05T12:26:14;3.90;;;1.23;;
28848;SDS011;15981;43.292;-2.888;2022-07-05T12:28:40;1.77;;;1.20;;
28848;SDS011;15981;43.292;-2.888;2022-07-05T12:33:41;4.38;;;1.73;;
28848;SDS011;15981;43.292;-2.888;2022-07-05T12:36:14;3.75;;;1.35;;
28848;SDS011;15981;43.292;-2.888;2022-07-05T12:38:40;1.63;;;1.20;;
28848;SDS011;15981;43.292;-2.888;2022-07-05T12:41:07;2.88;;;1.38;;
28848;SDS011;15981;43.292;-2.888;2022-07-05T12:43:33;2.92;;;1.50;;
28848;SDS011;15981;43.292;-2.888;2022-07-05T12:46:02;3.92;;;1.50;;
28848;SDS011;15981;43.292;-2.888;2022-07-05T12:48:35;4.80;;;1.30;;
28848;SDS011;15981;43.292;-2.888;2022-07-05T12:51:01;2.80;;;1.40;;
28848;SDS011;15981;43.292;-2.888;2022-07-05T12:53:27;4.03;;;1.50;;
28848;SDS011;15981;43.292;-2.888;2022-07-05T12:56:12;3.38;;;1.80;;
28848;SDS011;15981;43.292;-2.888;2022-07-05T12:59:01;3.65;;;1.48;;
28848;SDS011;15981;43.292;-2.888;2022-07-05T13:01:28;4.93;;;1.52;;
28848;SDS011;15981;43.292;-2.888;2022-07-05T13:04:02;3.13;;;1.40;;
28848;SDS011;15981;43.292;-2.888;2022-07-05T13:09:06;2.70;;;1.48;;
28848;SDS011;15981;43.292;-2.888;2022-07-05T13:11:32;1.88;;;1.20;;
28848;SDS011;15981;43.292;-2.888;2022-07-05T13:13:58;1.42;;;1.27;;
28848;SDS011;15981;43.292;-2.888;2022-07-05T13:16:23;4.10;;;1.48;;
28848;SDS011;15981;43.292;-2.888;2022-07-05T13:18:49;1.80;;;1.25;;
28848;SDS011;15981;43.292;-2.888;2022-07-05T13:21:15;2.05;;;1.30;;
28848;SDS011;15981;43.292;-2.888;2022-07-05T13:23:41;3.25;;;1.25;;
28848;SDS011;15981;43.292;-2.888;2022-07-05T13:26:06;4.75;;;1.40;;
28848;SDS011;15981;43.292;-2.888;2022-07-05T13:28:32;4.00;;;1.50;;
28848;SDS011;15981;43.292;-2.888;2022-07-05T13:30:58;2.33;;;1.42;;
28848;SDS011;15981;43.292;-2.888;2022-07-05T13:33:24;2.03;;;1.35;;
28848;SDS011;15981;43.292;-2.888;2022-07-05T13:35:49;4.35;;;1.52;;
28848;SDS011;15981;43.292;-2.888;2022-07-05T13:38:15;4.82;;;1.50;;
28848;SDS011;15981;43.292;-2.888;2022-07-05T13:40:41;4.20;;;1.70;;
28848;SDS011;15981;43.292;-2.888;2022-07-05T13:43:07;4.03;;;1.60;;
28848;SDS011;15981;43.292;-2.888;2022-07-05T13:45:32;3.40;;;1.58;;
28848;SDS011;15981;43.292;-2.888;2022-07-05T13:47:58;3.47;;;1.85;;
28848;SDS011;15981;43.292;-2.888;2022-07-05T13:50:24;3.15;;;1.40;;
28848;SDS011;15981;43.292;-2.888;2022-07-05T13:53:00;2.08;;;1.35;;
28848;SDS011;15981;43.292;-2.888;2022-07-05T13:55:26;2.85;;;1.77;;
28848;SDS011;15981;43.292;-2.888;2022-07-05T13:57:52;3.63;;;1.75;;
28848;SDS011;15981;43.292;-2.888;2022-07-05T14:00:18;4.85;;;1.77;;
28848;SDS011;15981;43.292;-2.888;2022-07-05T14:02:44;4.78;;;1.88;;
28848;SDS011;15981;43.292;-2.888;2022-07-05T14:05:10;2.65;;;1.50;;
28848;SDS011;15981;43.292;-2.888;2022-07-05T14:07:36;2.20;;;1.45;;
28848;SDS011;15981;43.292;-2.888;2022-07-05T14:10:05;3.08;;;1.70;;
28848;SDS011;15981;43.292;-2.888;2022-07-05T14:12:30;5.55;;;1.90;;
28848;SDS011;15981;43.292;-2.888;2022-07-05T14:14:56;4.30;;;1.67;;
28848;SDS011;15981;43.292;-2.888;2022-07-05T14:17:22;3.80;;;1.98;;
28848;SDS011;15981;43.292;-2.888;2022-07-05T14:19:48;4.50;;;2.20;;
28848;SDS011;15981;43.292;-2.888;2022-07-05T14:22:13;3.75;;;1.65;;
28848;SDS011;15981;43.292;-2.888;2022-07-05T14:24:39;6.18;;;2.10;;
28848;SDS011;15981;43.292;-2.888;2022-07-05T14:27:05;4.35;;;1.90;;
28848;SDS011;15981;43.292;-2.888;2022-07-05T14:29:34;5.28;;;2.30;;
28848;SDS011;15981;43.292;-2.888;2022-07-05T14:32:00;5.30;;;2.08;;
28848;SDS011;15981;43.292;-2.888;2022-07-05T14:34:25;3.88;;;1.88;;
28848;SDS011;15981;43.292;-2.888;2022-07-05T14:36:54;4.60;;;2.30;;
28848;SDS011;15981;43.292;-2.888;2022-07-05T14:39:20;2.35;;;1.70;;
28848;SDS011;15981;43.292;-2.888;2022-07-05T14:41:46;5.65;;;2.00;;
28848;SDS011;15981;43.292;-2.888;2022-07-05T14:44:12;4.13;;;1.92;;
28848;SDS011;15981;43.292;-2.888;2022-07-05T14:46:38;4.22;;;2.00;;
28848;SDS011;15981;43.292;-2.888;2022-07-05T14:49:04;4.35;;;1.83;;